createdAt,value
2022-08-04T00:00:13.654Z,21.40
2022-08-04T00:02:52.847Z,21.40
2022-08-04T00:05:25.258Z,21.30
2022-08-04T00:08:06.805Z,21.20
2022-08-04T00:10:34.018Z,21.20
2022-08-04T00:13:03.757Z,21.20
2022-08-04T00:15:33.015Z,21.20
2022-08-04T00:18:09.241Z,21.20
2022-08-04T00:20:39.580Z,21.10
2022-08-04T00:23:06.884Z,21.00
2022-08-04T00:25:33.803Z,20.90
2022-08-04T00:28:01.426Z,20.90
2022-08-04T00:30:28.305Z,20.80
2022-08-04T00:32:57.403Z,20.80
2022-08-04T00:35:24.450Z,20.70
2022-08-04T00:37:52.143Z,20.60
2022-08-04T00:40:43.631Z,20.50
2022-08-04T00:43:26.257Z,20.50
2022-08-04T00:46:18.143Z,20.50
2022-08-04T00:49:06.783Z,20.40
2022-08-04T00:51:47.809Z,20.30
2022-08-04T00:54:49.161Z,20.20
2022-08-04T00:57:37.479Z,20.20
2022-08-04T01:00:12.829Z,20.20
2022-08-04T01:02:51.410Z,20.20
2022-08-04T01:05:37.608Z,20.20
2022-08-04T01:08:24.519Z,20.10
2022-08-04T01:11:17.154Z,20.10
2022-08-04T01:13:52.588Z,20.10
2022-08-04T01:16:25.007Z,20.00
2022-08-04T01:19:15.879Z,20.00
2022-08-04T01:22:13.365Z,19.90
2022-08-04T01:24:55.791Z,19.80
2022-08-04T01:27:49.077Z,19.80
2022-08-04T01:30:16.502Z,19.60
2022-08-04T01:33:03.622Z,19.50
2022-08-04T01:35:46.730Z,19.40
2022-08-04T01:38:33.132Z,19.40
2022-08-04T01:41:10.390Z,19.40
2022-08-04T01:43:42.594Z,19.40
2022-08-04T01:46:15.483Z,19.40
2022-08-04T01:48:45.467Z,19.30
2022-08-04T01:51:12.377Z,19.30
2022-08-04T01:53:41.807Z,19.30
2022-08-04T01:56:11.572Z,19.30
2022-08-04T01:58:39.853Z,19.30
2022-08-04T02:01:09.623Z,19.30
2022-08-04T02:04:20.825Z,19.20
2022-08-04T02:06:52.314Z,19.10
2022-08-04T02:09:32.502Z,19.10
2022-08-04T02:12:36.687Z,19.10
2022-08-04T02:15:16.534Z,19.00
2022-08-04T02:18:07.631Z,18.90
2022-08-04T02:20:38.133Z,18.90
2022-08-04T02:23:15.326Z,18.90
2022-08-04T02:25:57.135Z,18.80
2022-08-04T02:28:29.816Z,18.80
2022-08-04T02:31:12.982Z,18.70
2022-08-04T02:33:44.846Z,18.70
2022-08-04T02:36:21.015Z,18.70
2022-08-04T02:38:58.737Z,18.70
2022-08-04T02:41:27.592Z,18.60
2022-08-04T02:44:00.671Z,18.50
2022-08-04T02:46:29.022Z,18.50
2022-08-04T02:48:55.887Z,18.40
2022-08-04T02:51:25.814Z,18.30
2022-08-04T02:53:57.139Z,18.30
2022-08-04T02:56:25.833Z,18.30
2022-08-04T02:59:04.837Z,18.30
2022-08-04T03:01:32.901Z,18.20
2022-08-04T03:04:24.870Z,18.20
2022-08-04T03:07:24.291Z,18.20
2022-08-04T03:10:15.491Z,18.30
2022-08-04T03:13:03.245Z,18.30
2022-08-04T03:15:58.690Z,18.20
2022-08-04T03:18:37.675Z,18.10
2022-08-04T03:21:22.430Z,18.20
2022-08-04T03:23:54.984Z,18.20
2022-08-04T03:26:53.890Z,18.20
2022-08-04T03:29:41.329Z,18.10
2022-08-04T03:32:26.443Z,18.10
2022-08-04T03:35:22.848Z,18.00
2022-08-04T03:38:20.264Z,17.90
2022-08-04T03:41:16.631Z,17.80
2022-08-04T03:44:12.362Z,17.80
2022-08-04T03:46:47.231Z,17.80
2022-08-04T03:49:51.510Z,17.80
2022-08-04T03:52:40.969Z,17.80
2022-08-04T03:55:28.971Z,17.70
2022-08-04T03:58:30.647Z,17.60
2022-08-04T04:02:01.203Z,17.70
2022-08-04T04:04:45.807Z,17.60
2022-08-04T04:07:59.848Z,17.60
2022-08-04T04:10:46.663Z,17.50
2022-08-04T04:13:26.491Z,17.50
2022-08-04T04:16:34.456Z,17.50
2022-08-04T04:19:16.244Z,17.50
2022-08-04T04:22:10.162Z,17.50
2022-08-04T04:24:49.451Z,17.50
2022-08-04T04:27:32.438Z,17.50
2022-08-04T04:30:07.902Z,17.60
2022-08-04T04:33:10.699Z,17.60
2022-08-04T04:35:51.301Z,17.70
2022-08-04T04:38:43.945Z,17.70
2022-08-04T04:41:16.576Z,17.80
2022-08-04T04:43:51.578Z,17.90
2022-08-04T04:46:48.478Z,17.90
2022-08-04T04:49:34.708Z,17.90
2022-08-04T04:52:21.585Z,18.00
2022-08-04T04:54:53.967Z,18.00
2022-08-04T04:57:53.030Z,18.10
2022-08-04T05:00:12.013Z,18.20
2022-08-04T05:03:16.494Z,18.30
2022-08-04T05:06:04.754Z,18.40
2022-08-04T05:08:58.216Z,18.30
2022-08-04T05:11:43.576Z,18.20
2022-08-04T05:14:34.553Z,18.30
2022-08-04T05:17:18.459Z,18.50
2022-08-04T05:19:49.779Z,18.80
2022-08-04T05:22:42.045Z,18.80
2022-08-04T05:25:16.904Z,19.00
2022-08-04T05:28:18.242Z,19.20
2022-08-04T05:31:03.779Z,19.50
2022-08-04T05:33:47.092Z,19.60
2022-08-04T05:36:39.515Z,19.70
2022-08-04T05:39:10.148Z,19.80
2022-08-04T05:41:45.586Z,19.90
2022-08-04T05:44:20.516Z,20.20
2022-08-04T05:46:53.582Z,20.50
2022-08-04T05:49:27.074Z,20.70
2022-08-04T05:51:56.679Z,20.70
2022-08-04T05:54:24.830Z,20.80
2022-08-04T05:56:53.406Z,20.70
2022-08-04T05:59:21.400Z,20.90
2022-08-04T06:01:55.056Z,21.10
2022-08-04T06:04:26.691Z,21.30
2022-08-04T06:06:54.261Z,21.30
2022-08-04T06:09:20.968Z,21.30
2022-08-04T06:12:00.465Z,21.50
2022-08-04T06:14:35.314Z,21.80
2022-08-04T06:17:03.448Z,21.90
2022-08-04T06:20:03.170Z,22.10
2022-08-04T06:22:19.664Z,22.20
2022-08-04T06:24:47.939Z,22.50
2022-08-04T06:27:16.170Z,22.60
2022-08-04T06:29:51.554Z,22.70
2022-08-04T06:32:28.760Z,22.80
2022-08-04T06:35:00.929Z,22.90
2022-08-04T06:37:42.147Z,22.90
2022-08-04T06:40:30.919Z,22.90
2022-08-04T06:42:59.923Z,22.90
2022-08-04T06:45:27.673Z,22.90
2022-08-04T06:47:56.033Z,23.00
2022-08-04T06:51:30.774Z,23.20
2022-08-04T06:53:11.480Z,23.20
2022-08-04T06:55:40.586Z,23.30
2022-08-04T06:58:08.908Z,23.50
2022-08-04T07:00:37.784Z,23.60
2022-08-04T07:03:05.368Z,23.70
2022-08-04T07:05:32.670Z,24.00
2022-08-04T07:07:59.861Z,24.00
2022-08-04T07:10:30.470Z,23.90
2022-08-04T07:13:00.521Z,24.00
2022-08-04T07:15:27.673Z,24.30
2022-08-04T07:17:55.625Z,24.30
2022-08-04T07:20:34.410Z,24.40
2022-08-04T07:23:01.993Z,24.40
2022-08-04T07:25:57.236Z,24.50
2022-08-04T07:28:15.530Z,24.60
2022-08-04T07:30:44.649Z,24.90
2022-08-04T07:33:11.683Z,25.00
2022-08-04T07:36:05.854Z,25.10
2022-08-04T07:38:27.723Z,25.00
2022-08-04T07:40:55.375Z,25.30
2022-08-04T07:43:22.769Z,25.40
2022-08-04T07:45:49.590Z,25.60
2022-08-04T07:48:16.454Z,25.70
2022-08-04T07:50:45.159Z,25.80
2022-08-04T07:53:54.442Z,25.90
2022-08-04T07:56:00.582Z,26.00
2022-08-04T07:58:29.911Z,26.10
2022-08-04T08:00:57.754Z,26.20
2022-08-04T08:03:25.303Z,26.30
2022-08-04T08:06:17.787Z,26.60
2022-08-04T08:08:39.782Z,26.60
2022-08-04T08:11:10.423Z,26.50
2022-08-04T08:13:37.514Z,26.60
2022-08-04T08:16:05.215Z,26.60
2022-08-04T08:18:32.015Z,26.80
2022-08-04T08:20:58.983Z,27.00
2022-08-04T08:23:26.295Z,27.20
2022-08-04T08:25:53.977Z,27.20
2022-08-04T08:28:20.642Z,27.30
2022-08-04T08:30:52.851Z,27.40
2022-08-04T08:33:21.462Z,27.50
2022-08-04T08:36:07.621Z,27.60
2022-08-04T08:38:57.799Z,27.80
2022-08-04T08:41:59.726Z,28.00
2022-08-04T08:44:51.417Z,28.30
2022-08-04T08:48:04.983Z,28.40
2022-08-04T08:50:42.315Z,28.60
2022-08-04T08:53:40.167Z,28.60
2022-08-04T08:56:42.843Z,28.60
2022-08-04T08:59:39.030Z,28.80
2022-08-04T09:02:34.091Z,28.70
2022-08-04T09:05:11.355Z,28.90
2022-08-04T09:08:06.789Z,29.20
2022-08-04T09:10:41.231Z,29.50
2022-08-04T09:13:19.630Z,29.40
2022-08-04T09:16:02.490Z,29.50
2022-08-04T09:18:45.146Z,29.50
2022-08-04T09:21:25.738Z,29.60
2022-08-04T09:24:00.450Z,29.60
2022-08-04T09:26:34.568Z,29.80
2022-08-04T09:29:13.864Z,29.80
2022-08-04T09:32:06.624Z,29.90
2022-08-04T09:35:05.609Z,30.10
2022-08-04T09:37:48.583Z,30.40
2022-08-04T09:40:35.515Z,30.60
2022-08-04T09:44:52.613Z,30.60
2022-08-04T09:47:23.768Z,30.90
2022-08-04T09:49:55.427Z,31.00
2022-08-04T09:52:52.566Z,31.00
2022-08-04T09:55:33.480Z,30.80
2022-08-04T09:58:14.900Z,30.90
2022-08-04T10:00:48.049Z,30.90
2022-08-04T10:03:20.226Z,31.10
2022-08-04T10:06:24.509Z,31.10
2022-08-04T10:09:12.508Z,31.20
2022-08-04T10:11:57.478Z,31.30
2022-08-04T10:14:36.899Z,31.40
2022-08-04T10:17:26.047Z,31.70
2022-08-04T10:20:45.654Z,31.90
2022-08-04T10:23:56.076Z,32.00
2022-08-04T10:26:48.738Z,32.00
2022-08-04T10:29:22.207Z,31.80
2022-08-04T10:31:54.250Z,31.70
2022-08-04T10:34:24.809Z,31.80
2022-08-04T10:37:59.971Z,32.10
2022-08-04T10:40:28.016Z,32.20
2022-08-04T10:43:30.467Z,32.20
2022-08-04T10:46:04.859Z,32.40
2022-08-04T10:48:46.552Z,32.60
2022-08-04T10:51:58.714Z,32.70
2022-08-04T10:54:27.448Z,32.40
2022-08-04T10:57:00.642Z,32.30
2022-08-04T10:59:49.674Z,32.50
2022-08-04T11:02:30.996Z,32.60
2022-08-04T11:05:17.788Z,32.60
2022-08-04T11:07:47.325Z,32.80
2022-08-04T11:10:16.955Z,33.00
2022-08-04T11:12:45.361Z,32.90
2022-08-04T11:15:37.982Z,32.90
2022-08-04T11:18:30.264Z,32.80
2022-08-04T11:21:07.314Z,32.90
2022-08-04T11:23:35.225Z,33.10
2022-08-04T11:26:24.339Z,32.80
2022-08-04T11:29:14.319Z,32.90
2022-08-04T11:31:48.421Z,33.20
2022-08-04T11:34:23.173Z,33.30
2022-08-04T11:37:15.182Z,33.60
2022-08-04T11:40:02.724Z,33.70
2022-08-04T11:42:39.328Z,33.50
2022-08-04T11:45:17.775Z,33.50
2022-08-04T11:47:55.313Z,33.70
2022-08-04T11:50:31.738Z,33.90
2022-08-04T11:52:59.262Z,34.10
2022-08-04T11:55:28.278Z,34.10
2022-08-04T11:57:55.754Z,34.20
2022-08-04T12:00:24.491Z,34.30
2022-08-04T12:03:15.241Z,34.50
2022-08-04T12:06:08.886Z,34.50
2022-08-04T12:08:53.944Z,34.40
2022-08-04T12:11:51.163Z,34.40
2022-08-04T12:14:38.226Z,34.70
2022-08-04T12:17:05.964Z,34.70
2022-08-04T12:19:58.642Z,34.80
2022-08-04T12:22:32.334Z,35.00
2022-08-04T12:25:08.182Z,35.10
2022-08-04T12:27:46.675Z,35.30
2022-08-04T12:31:02.528Z,35.30
2022-08-04T12:33:12.946Z,35.20
2022-08-04T12:36:05.224Z,35.30
2022-08-04T12:38:50.010Z,35.40
2022-08-04T12:41:23.607Z,35.40
2022-08-04T12:43:50.596Z,35.50
2022-08-04T12:46:24.206Z,35.60
2022-08-04T12:48:51.217Z,35.50
2022-08-04T12:51:55.966Z,35.60
2022-08-04T12:54:07.461Z,35.60
2022-08-04T12:56:34.840Z,35.50
2022-08-04T12:59:13.025Z,35.30
2022-08-04T13:02:09.290Z,35.40
2022-08-04T13:04:38.671Z,35.30
2022-08-04T13:07:15.210Z,35.30
2022-08-04T13:09:42.123Z,35.30
2022-08-04T13:12:18.984Z,35.40
2022-08-04T13:14:50.582Z,35.70
2022-08-04T13:17:17.550Z,35.50
2022-08-04T13:19:50.191Z,35.40
2022-08-04T13:22:28.422Z,35.70
2022-08-04T13:26:40.656Z,35.80
2022-08-04T13:27:44.820Z,36.00
2022-08-04T13:30:22.655Z,35.90
2022-08-04T13:32:56.753Z,36.00
2022-08-04T13:35:54.144Z,35.80
2022-08-04T13:38:14.273Z,35.40
2022-08-04T13:40:43.155Z,35.80
2022-08-04T13:44:15.478Z,35.60
2022-08-04T13:46:03.691Z,35.80
2022-08-04T13:48:36.410Z,35.90
2022-08-04T13:51:07.213Z,35.70
2022-08-04T13:53:36.418Z,35.50
2022-08-04T13:56:07.119Z,35.50
2022-08-04T13:58:40.913Z,35.60
2022-08-04T14:01:22.098Z,35.50
2022-08-04T14:04:09.471Z,35.40
2022-08-04T14:06:49.146Z,35.50
2022-08-04T14:09:18.478Z,35.30
2022-08-04T14:12:09.717Z,35.40
2022-08-04T14:14:37.341Z,35.40
2022-08-04T14:17:19.687Z,35.40
2022-08-04T14:19:47.031Z,35.30
2022-08-04T14:22:26.909Z,35.30
2022-08-04T14:25:03.190Z,35.30
2022-08-04T14:27:40.110Z,35.10
2022-08-04T14:30:07.665Z,35.20
2022-08-04T14:32:36.509Z,35.20
2022-08-04T14:35:11.156Z,35.10
2022-08-04T14:37:48.406Z,35.20
2022-08-04T14:40:30.952Z,34.90
2022-08-04T14:42:58.758Z,35.00
2022-08-04T14:45:54.144Z,34.90
2022-08-04T14:48:22.333Z,34.90
2022-08-04T14:50:50.701Z,34.70
2022-08-04T14:53:22.540Z,34.70
2022-08-04T14:55:52.172Z,34.50
2022-08-04T14:58:36.817Z,34.60
2022-08-04T15:01:10.830Z,34.50
2022-08-04T15:03:51.738Z,34.40
2022-08-04T15:06:30.754Z,34.30
2022-08-04T15:09:00.377Z,34.40
2022-08-04T15:11:27.612Z,34.30
2022-08-04T15:13:56.152Z,34.40
2022-08-04T15:16:24.574Z,34.40
2022-08-04T15:18:54.568Z,34.50
2022-08-04T15:21:24.756Z,34.40
2022-08-04T15:23:51.842Z,34.40
2022-08-04T15:26:40.895Z,34.40
2022-08-04T15:29:26.621Z,34.50
2022-08-04T15:32:06.740Z,34.60
2022-08-04T15:34:52.472Z,34.50
2022-08-04T15:37:28.374Z,34.60
2022-08-04T15:40:16.134Z,34.60
2022-08-04T15:43:01.618Z,34.80
2022-08-04T15:46:35.010Z,34.80
2022-08-04T15:48:40.576Z,34.80
2022-08-04T15:51:15.209Z,34.60
2022-08-04T15:54:01.219Z,34.60
2022-08-04T15:56:30.100Z,34.70
2022-08-04T15:58:56.932Z,34.80
2022-08-04T16:01:24.122Z,34.70
2022-08-04T16:03:59.161Z,34.80
2022-08-04T16:06:29.741Z,34.70
2022-08-04T16:09:02.010Z,34.70
2022-08-04T16:11:32.309Z,34.60
2022-08-04T16:13:59.289Z,34.60
2022-08-04T16:16:31.829Z,34.50
2022-08-04T16:19:06.854Z,34.60
2022-08-04T16:21:35.682Z,34.40
2022-08-04T16:24:32.110Z,34.30
2022-08-04T16:27:01.178Z,34.30
2022-08-04T16:29:34.878Z,34.20
2022-08-04T16:32:06.684Z,34.10
2022-08-04T16:34:48.300Z,34.00
2022-08-04T16:37:18.657Z,34.00
2022-08-04T16:39:50.836Z,33.80
2022-08-04T16:42:30.467Z,33.80
2022-08-04T16:45:07.148Z,33.80
2022-08-04T16:47:49.071Z,33.70
2022-08-04T16:50:20.457Z,33.70
2022-08-04T16:52:47.047Z,33.60
2022-08-04T16:55:18.976Z,33.70
2022-08-04T16:57:50.116Z,33.50
2022-08-04T17:00:17.890Z,33.50
2022-08-04T17:02:44.590Z,33.50
2022-08-04T17:05:39.507Z,33.40
2022-08-04T17:08:29.315Z,33.30
2022-08-04T17:10:55.431Z,33.30
2022-08-04T17:14:03.635Z,33.30
2022-08-04T17:16:18.898Z,33.30
2022-08-04T17:18:48.060Z,33.20
2022-08-04T17:21:18.364Z,33.20
2022-08-04T17:24:13.282Z,33.10
2022-08-04T17:26:40.227Z,33.00
2022-08-04T17:29:09.050Z,33.00
2022-08-04T17:31:38.017Z,32.90
2022-08-04T17:34:16.823Z,32.90
2022-08-04T17:36:47.442Z,32.90
2022-08-04T17:39:18.755Z,32.80
2022-08-04T17:41:48.743Z,32.80
2022-08-04T17:44:16.758Z,32.70
2022-08-04T17:46:48.361Z,32.70
2022-08-04T17:49:16.531Z,32.50
2022-08-04T17:52:07.019Z,32.50
2022-08-04T17:54:40.177Z,32.50
2022-08-04T18:00:05.927Z,32.30
2022-08-04T18:02:34.680Z,32.20
2022-08-04T18:05:06.846Z,32.00
2022-08-04T18:08:38.070Z,31.80
2022-08-04T18:13:30.015Z,31.60
2022-08-04T18:16:22.435Z,31.40
2022-08-04T18:19:25.138Z,31.20
2022-08-04T18:21:59.681Z,31.00
2022-08-04T18:24:36.113Z,30.90
2022-08-04T18:27:21.445Z,30.80
2022-08-04T18:29:56.410Z,30.60
2022-08-04T18:32:35.290Z,30.40
2022-08-04T18:35:05.143Z,30.20
2022-08-04T18:38:06.433Z,30.10
2022-08-04T18:40:29.972Z,30.00
2022-08-04T18:43:02.139Z,29.90
2022-08-04T18:45:34.590Z,29.70
2022-08-04T18:48:02.484Z,29.60
2022-08-04T18:50:59.727Z,29.50
2022-08-04T18:53:17.750Z,29.40
2022-08-04T18:55:57.159Z,29.20
2022-08-04T18:58:27.092Z,29.10
2022-08-04T19:00:54.781Z,29.00
2022-08-04T19:03:22.990Z,28.90
2022-08-04T19:05:50.288Z,28.70
2022-08-04T19:08:33.912Z,28.60
2022-08-04T19:11:36.887Z,28.50
2022-08-04T19:13:57.831Z,28.40
2022-08-04T19:16:29.667Z,28.30
2022-08-04T19:18:57.926Z,28.20
2022-08-04T19:22:00.246Z,28.10
2022-08-04T19:24:31.896Z,28.00
2022-08-04T19:26:59.183Z,27.80
2022-08-04T19:29:25.822Z,27.70
2022-08-04T19:32:15.027Z,27.60
2022-08-04T19:34:47.434Z,27.60
2022-08-04T19:37:56.126Z,27.60
2022-08-04T19:40:09.638Z,27.60
2022-08-04T19:42:37.242Z,27.50
2022-08-04T19:45:05.090Z,27.30
2022-08-04T19:48:21.472Z,27.10
2022-08-04T19:50:20.000Z,26.90
2022-08-04T19:52:51.993Z,26.90
2022-08-04T19:55:22.632Z,26.70
2022-08-04T19:58:04.646Z,26.60
2022-08-04T20:00:35.167Z,26.60
2022-08-04T20:03:11.331Z,26.60
2022-08-04T20:05:54.868Z,26.40
2022-08-04T20:08:28.343Z,26.40
2022-08-04T20:10:55.289Z,26.40
2022-08-04T20:13:25.410Z,26.30
2022-08-04T20:15:58.436Z,26.20
2022-08-04T20:18:36.163Z,26.00
2022-08-04T20:21:18.987Z,26.00
2022-08-04T20:23:50.545Z,25.80
2022-08-04T20:26:17.294Z,25.80
2022-08-04T20:28:45.696Z,25.60
2022-08-04T20:31:12.689Z,25.50
2022-08-04T20:33:53.853Z,25.50
2022-08-04T20:36:21.866Z,25.30
2022-08-04T20:38:52.886Z,25.30
2022-08-04T20:41:23.004Z,25.20
2022-08-04T20:43:50.751Z,25.10
2022-08-04T20:46:29.463Z,25.10
2022-08-04T20:48:57.503Z,25.20
2022-08-04T20:51:25.947Z,25.20
2022-08-04T20:53:58.993Z,25.20
2022-08-04T20:56:30.859Z,25.20
2022-08-04T20:59:00.984Z,25.20
2022-08-04T21:01:29.839Z,25.10
2022-08-04T21:03:59.748Z,25.10
2022-08-04T21:06:27.434Z,25.00
2022-08-04T21:08:56.733Z,25.00
2022-08-04T21:11:24.163Z,24.90
2022-08-04T21:13:59.789Z,24.60
2022-08-04T21:16:55.604Z,24.50
2022-08-04T21:19:13.877Z,24.40
2022-08-04T21:21:41.570Z,24.30
2022-08-04T21:24:09.350Z,24.20
2022-08-04T21:26:36.097Z,24.20
2022-08-04T21:29:04.539Z,24.20
2022-08-04T21:31:33.094Z,24.20
2022-08-04T21:34:17.017Z,24.20
2022-08-04T21:37:03.676Z,24.20
2022-08-04T21:39:32.303Z,24.20
2022-08-04T21:42:29.581Z,24.20
2022-08-04T21:44:46.070Z,24.10
2022-08-04T21:47:14.045Z,24.10
2022-08-04T21:49:56.438Z,24.10
2022-08-04T21:52:24.520Z,24.00
2022-08-04T21:54:54.673Z,23.90
2022-08-04T21:57:24.857Z,23.80
2022-08-04T21:59:52.527Z,23.80
2022-08-04T22:02:19.374Z,23.80
2022-08-04T22:04:46.164Z,23.80
2022-08-04T22:07:12.768Z,23.70
2022-08-04T22:10:02.351Z,23.80
2022-08-04T22:12:30.308Z,23.70
2022-08-04T22:14:59.537Z,23.50
2022-08-04T22:17:35.261Z,23.50
2022-08-04T22:20:03.953Z,23.40
2022-08-04T22:22:34.385Z,23.30
2022-08-04T22:25:06.214Z,23.30
2022-08-04T22:27:40.667Z,23.20
2022-08-04T22:30:16.758Z,23.10
2022-08-04T22:32:46.531Z,23.10
2022-08-04T22:35:36.189Z,23.10
2022-08-04T22:38:07.842Z,23.10
2022-08-04T22:40:50.764Z,23.10
2022-08-04T22:43:32.803Z,23.10
2022-08-04T22:46:01.889Z,23.00
2022-08-04T22:48:31.829Z,22.90
2022-08-04T22:50:59.642Z,22.90
2022-08-04T22:53:26.354Z,22.80
2022-08-04T22:56:07.573Z,22.80
2022-08-04T22:58:45.145Z,22.70
2022-08-04T23:01:12.915Z,22.70
2022-08-04T23:03:42.574Z,22.60
2022-08-04T23:06:24.493Z,22.60
2022-08-04T23:08:51.600Z,22.50
2022-08-04T23:11:18.255Z,22.50
2022-08-04T23:13:45.003Z,22.50
2022-08-04T23:16:12.021Z,22.50
2022-08-04T23:18:41.915Z,22.50
2022-08-04T23:21:09.983Z,22.50
2022-08-04T23:23:38.119Z,22.40
2022-08-04T23:26:13.842Z,22.30
2022-08-04T23:28:41.358Z,22.10
2022-08-04T23:31:10.160Z,22.10
2022-08-04T23:33:50.947Z,22.00
2022-08-04T23:36:19.598Z,21.90
2022-08-04T23:38:59.748Z,22.00
2022-08-04T23:41:54.589Z,22.00
2022-08-04T23:44:13.490Z,22.00
2022-08-04T23:46:51.159Z,22.10
2022-08-04T23:49:20.000Z,22.00
2022-08-04T23:51:49.794Z,22.00
2022-08-04T23:54:16.616Z,21.90
2022-08-04T23:56:52.632Z,21.80
2022-08-04T23:59:52.040Z,21.70
